Skip Navigation Links
NOAA logo - Click to go to the NOAA homepage
NOAA's National Weather Service
Alaska Aviation Weather Unit
  NWS logo - Click to go to the NWS homepage
Left Navbar Graphic     22 AKST = 07 GMT

   
NOAA is celebrating 200 years of science, service, and stewardship. Visit the NOAA 200th celebration Web site to learn more.
USA.gov is the U.S. Government's official Web portal to all Federal, state and local government Web resources and services.
Facebook
NWS on Facebook

AAWU Home :: Display TAF Add Bookmark
TAF PASN 230522Z 2306/2406 17016KT 5SM -RA BR OVC020
      TEMPO 2306/2310 2SM -RASN BR
     FM231200 19013KT 3SM -RA BR OVC012
     FM231600 21012KT P6SM -SHRASN BKN020
     FM232100 20016KT P6SM BKN035=
SPECI PASN 230128Z 18023G33KT 2 1/2SM -RA SCT008 SCT014 OVC023 03/03
     A2959 RMK AO2 PK WND 18033/0123 P0002 T00330028=

METAR PASN 230153Z 18022KT 2SM -RA FEW012 BKN017 OVC024 03/03 A2959
 RMK AO2 PK WND 18033/0123 SLP022 P0002 T00330028=

PASN 230205Z AUTO 18023G30KT 1 3/4SM -SN BR BKN013 OVC019 03/03
A2959=

PASN 230212Z AUTO 18022KT 1 1/2SM -SN BR FEW010 OVC016 03/03 A2958=

PASN 230232Z AUTO 18019KT 1 3/4SM -SN BR SCT006 SCT009 OVC015
03/03 A2960=

PASN 230240Z AUTO 18019G26KT 1 3/4SM -SN BR BKN008 OVC015 03/03
A2959=

METAR PASN 230253Z AUTO 18020KT 1 3/4SM UP BR BKN008 OVC018 03/03 A2959
     RMK AO2 PK WND 18030/0157 RAE02UPB50SNB02E50 CIG 006V010
     SLP022 P0001 60007 T00280028 53005 TSNO=

PASN 230258Z AUTO 18019KT 2SM UP BR SCT008 OVC018 03/03 A2960=

PASN 230319Z AUTO 19018G27KT 3SM -RA BR FEW009 BKN020 OVC026 03/03
A2960=

PASN 230336Z AUTO 18016KT 2SM UP BR FEW012 BKN026 OVC041 03/03
A2960=

PASN 230339Z AUTO 18016KT 1 3/4SM BR FEW017 SCT026 OVC039 03/03
A2960=

METAR PASN 230353Z AUTO 18016KT 2 1/2SM UP BR FEW026 BKN037 OVC050 03/03
     A2960 RMK AO2 PK WND 18027/0310 UPE05B26RAB05E26 SLP023 P0002
     T00280028 TSNO=

PASN 230421Z AUTO 18015KT 2SM BR BKN022 BKN028 OVC037 02/02 A2962=

PASN 230449Z AUTO 18016KT 4SM UP BR OVC022 02/02 A2964=

METAR PASN 230453Z AUTO 18016KT 4SM -RA BR OVC020 02/02 A2964 RMK AO2
     UPE08B44E53RAB53 SLP038 P0000 T00220022 TSNO=

METAR PASN 230553Z AUTO 18016KT 5SM UP BR OVC022 02/02 A2964 RMK AO2
 RAE49UPB20 SLP038 P0001 60010 T00220017 10033 20022 50015 TSNO=

METAR PASN 230653Z AUTO 17013KT 4SM BR SCT011 OVC019 02/02 A2963 RMK AO2
     UPE0559 SLP033 P0001 T00170017 TSNO=


NOAA's National Weather Service
Alaska Aviation Weather Unit
6930 Sand Lake Road
Anchorage, AK 99502-1845
Disclaimer
Credits
Glossary
Privacy Policy
About Us
Career Opportunities
Contact AAWU Internet Services Site last modified: April, 17th 2012